createdAt,value
2019-01-13T00:00:11.753Z,971.61
2019-01-13T00:01:08.323Z,971.58
2019-01-13T00:02:08.159Z,971.56
2019-01-13T00:03:08.112Z,971.60
2019-01-13T00:04:08.112Z,971.62
2019-01-13T00:05:08.020Z,971.61
2019-01-13T00:06:07.978Z,971.59
2019-01-13T00:07:07.969Z,971.63
2019-01-13T00:08:07.894Z,971.62
2019-01-13T00:09:07.847Z,971.64
2019-01-13T00:10:07.854Z,971.65
2019-01-13T00:11:07.763Z,971.63
2019-01-13T00:12:07.722Z,971.66
2019-01-13T00:13:07.672Z,971.63
2019-01-13T00:14:07.635Z,971.62
2019-01-13T00:15:07.591Z,971.67
2019-01-13T00:16:07.543Z,971.65
2019-01-13T00:17:07.498Z,971.70
2019-01-13T00:18:07.455Z,971.69
2019-01-13T00:19:07.411Z,971.66
2019-01-13T00:20:07.367Z,971.72
2019-01-13T00:21:07.336Z,971.64
2019-01-13T00:22:07.277Z,971.64
2019-01-13T00:23:07.244Z,971.64
2019-01-13T00:24:07.191Z,971.65
2019-01-13T00:25:07.147Z,971.68
2019-01-13T00:26:07.101Z,971.69
2019-01-13T00:27:07.064Z,971.69
2019-01-13T00:28:07.013Z,971.64
2019-01-13T00:29:08.100Z,971.63
2019-01-13T00:30:06.932Z,971.66
2019-01-13T00:31:06.884Z,971.68
2019-01-13T00:32:06.859Z,971.65
2019-01-13T00:33:06.808Z,971.67
2019-01-13T00:34:06.754Z,971.69
2019-01-13T00:35:06.709Z,971.64
2019-01-13T00:36:06.664Z,971.65
2019-01-13T00:37:06.620Z,971.67
2019-01-13T00:38:06.576Z,971.71
2019-01-13T00:39:06.536Z,971.67
2019-01-13T00:40:06.487Z,971.62
2019-01-13T00:41:06.443Z,971.59
2019-01-13T00:42:06.403Z,971.58
2019-01-13T00:43:06.357Z,971.55
2019-01-13T00:44:06.358Z,971.64
2019-01-13T00:45:06.270Z,971.63
2019-01-13T00:46:06.229Z,971.61
2019-01-13T00:47:06.184Z,971.63
2019-01-13T00:48:06.139Z,971.55
2019-01-13T00:49:06.092Z,971.60
2019-01-13T00:50:06.044Z,971.65
2019-01-13T00:51:05.998Z,971.64
2019-01-13T00:52:05.961Z,971.61
2019-01-13T00:53:05.935Z,971.63
2019-01-13T00:54:05.870Z,971.66
2019-01-13T00:55:05.859Z,971.74
2019-01-13T00:56:05.781Z,971.71
2019-01-13T00:57:05.739Z,971.72
2019-01-13T00:58:05.694Z,971.74
2019-01-13T00:59:05.651Z,971.73
2019-01-13T01:00:05.603Z,971.76
2019-01-13T01:01:05.559Z,971.70
2019-01-13T01:02:05.520Z,971.77
2019-01-13T01:03:05.469Z,971.79
2019-01-13T01:04:05.426Z,971.78
2019-01-13T01:05:05.392Z,971.80
2019-01-13T01:06:05.351Z,971.75
2019-01-13T01:07:05.304Z,971.79
2019-01-13T01:08:05.256Z,971.72
2019-01-13T01:09:05.223Z,971.68
2019-01-13T01:10:05.169Z,971.72
2019-01-13T01:11:05.132Z,971.74
2019-01-13T01:12:05.082Z,971.71
2019-01-13T01:13:05.039Z,971.79
2019-01-13T01:14:04.998Z,971.75
2019-01-13T01:15:04.997Z,971.73
2019-01-13T01:16:04.899Z,971.70
2019-01-13T01:17:04.917Z,971.68
2019-01-13T01:18:04.814Z,971.66
2019-01-13T01:19:04.783Z,971.65
2019-01-13T01:20:04.722Z,971.66
2019-01-13T01:21:04.679Z,971.57
2019-01-13T01:22:04.634Z,971.59
2019-01-13T01:23:04.595Z,971.62
2019-01-13T01:24:04.549Z,971.52
2019-01-13T01:25:04.506Z,971.48
2019-01-13T01:26:04.468Z,971.51
2019-01-13T01:27:04.421Z,971.44
2019-01-13T01:28:04.375Z,971.44
2019-01-13T01:29:04.329Z,971.45
2019-01-13T01:30:04.353Z,971.46
2019-01-13T01:31:04.240Z,971.43
2019-01-13T01:32:04.243Z,971.45
2019-01-13T01:33:04.155Z,971.52
2019-01-13T01:34:04.112Z,971.50
2019-01-13T01:35:04.065Z,971.52
2019-01-13T01:36:04.023Z,971.57
2019-01-13T01:37:03.996Z,971.55
2019-01-13T01:38:03.931Z,971.48
2019-01-13T01:39:03.885Z,971.51
2019-01-13T01:40:03.847Z,971.50
2019-01-13T01:41:03.796Z,971.45
2019-01-13T01:42:03.756Z,971.43
2019-01-13T01:43:03.712Z,971.40
2019-01-13T01:44:03.663Z,971.35
2019-01-13T01:45:03.624Z,971.34
2019-01-13T01:46:03.573Z,971.28
2019-01-13T01:47:03.533Z,971.25
2019-01-13T01:48:03.501Z,971.31
2019-01-13T01:49:03.458Z,971.31
2019-01-13T01:50:03.401Z,971.35
2019-01-13T01:51:03.352Z,971.33
2019-01-13T01:52:03.314Z,971.39
2019-01-13T01:53:03.269Z,971.41
2019-01-13T01:54:03.225Z,971.42
2019-01-13T01:55:03.180Z,971.43
2019-01-13T01:56:03.149Z,971.42
2019-01-13T01:57:03.096Z,971.44
2019-01-13T01:58:03.047Z,971.43
2019-01-13T01:59:03.000Z,971.45
2019-01-13T02:00:02.966Z,971.48
2019-01-13T02:01:02.912Z,971.44
2019-01-13T02:02:02.930Z,971.38
2019-01-13T02:03:02.852Z,971.45
2019-01-13T02:04:02.786Z,971.49
2019-01-13T02:05:02.736Z,971.47
2019-01-13T02:06:02.691Z,971.42
2019-01-13T02:07:02.666Z,971.39
2019-01-13T02:08:02.605Z,971.44
2019-01-13T02:09:02.561Z,971.38
2019-01-13T02:10:02.517Z,971.39
2019-01-13T02:11:02.471Z,971.39
2019-01-13T02:12:02.434Z,971.33
2019-01-13T02:13:02.379Z,971.32
2019-01-13T02:14:02.342Z,971.31
2019-01-13T02:15:02.294Z,971.29
2019-01-13T02:16:02.255Z,971.25
2019-01-13T02:17:02.203Z,971.22
2019-01-13T02:18:02.163Z,971.20
2019-01-13T02:19:02.135Z,971.19
2019-01-13T02:20:02.073Z,971.21
2019-01-13T02:21:02.026Z,971.24
2019-01-13T02:22:01.986Z,971.19
2019-01-13T02:23:01.938Z,971.19
2019-01-13T02:24:01.899Z,971.19
2019-01-13T02:25:01.850Z,971.18
2019-01-13T02:26:01.804Z,971.13
2019-01-13T02:27:01.766Z,971.17
2019-01-13T02:28:01.719Z,971.20
2019-01-13T02:29:01.831Z,971.14
2019-01-13T02:30:01.643Z,971.19
2019-01-13T02:31:01.593Z,971.17
2019-01-13T02:32:01.541Z,971.17
2019-01-13T02:33:01.495Z,971.19
2019-01-13T02:34:01.453Z,971.18
2019-01-13T02:35:01.406Z,971.20
2019-01-13T02:36:01.360Z,971.20
2019-01-13T02:37:01.323Z,971.10
2019-01-13T02:38:01.274Z,971.09
2019-01-13T02:39:01.227Z,971.14
2019-01-13T02:40:01.190Z,971.04
2019-01-13T02:41:01.187Z,971.00
2019-01-13T02:42:01.093Z,970.90
2019-01-13T02:43:01.053Z,970.89
2019-01-13T02:44:01.005Z,970.91
2019-01-13T02:45:00.959Z,970.90
2019-01-13T02:46:00.916Z,970.87
2019-01-13T02:47:00.869Z,970.87
2019-01-13T02:48:00.829Z,970.92
2019-01-13T02:49:00.827Z,970.86
2019-01-13T02:50:00.740Z,970.83
2019-01-13T02:51:00.694Z,970.84
2019-01-13T02:52:00.650Z,970.79
2019-01-13T02:53:00.609Z,970.85
2019-01-13T02:54:00.562Z,970.90
2019-01-13T02:55:00.519Z,970.85
2019-01-13T02:56:00.473Z,970.89
2019-01-13T02:57:00.428Z,970.80
2019-01-13T02:58:00.385Z,970.79
2019-01-13T02:59:00.339Z,970.79
2019-01-13T03:00:00.297Z,970.80
2019-01-13T03:01:00.251Z,970.73
2019-01-13T03:02:00.212Z,970.73
2019-01-13T03:03:00.169Z,970.70
2019-01-13T03:04:00.122Z,970.72
2019-01-13T03:05:00.099Z,970.69
2019-01-13T03:06:00.032Z,970.66
2019-01-13T03:06:59.988Z,970.69
2019-01-13T03:07:59.949Z,970.71
2019-01-13T03:08:59.922Z,970.72
2019-01-13T03:09:59.857Z,970.67
2019-01-13T03:10:59.813Z,970.72
2019-01-13T03:11:59.764Z,970.68
2019-01-13T03:12:59.717Z,970.65
2019-01-13T03:13:59.673Z,970.63
2019-01-13T03:14:59.625Z,970.63
2019-01-13T03:15:59.582Z,970.58
2019-01-13T03:16:59.541Z,970.55
2019-01-13T03:17:59.498Z,970.60
2019-01-13T03:18:59.450Z,970.66
2019-01-13T03:19:59.405Z,970.68
2019-01-13T03:20:59.365Z,970.71
2019-01-13T03:21:59.308Z,970.70
2019-01-13T03:22:59.273Z,970.69
2019-01-13T03:23:59.229Z,970.66
2019-01-13T03:24:59.182Z,970.67
2019-01-13T08:42:16.169Z,967.51
2019-01-13T08:43:16.091Z,967.42
2019-01-13T08:45:09.985Z,967.51
2019-01-13T08:46:09.896Z,967.47
2019-01-13T08:47:09.844Z,967.52
2019-01-13T08:48:09.797Z,967.53
2019-01-13T08:49:09.770Z,967.52
2019-01-13T08:50:09.696Z,967.52
2019-01-13T08:51:09.693Z,967.50
2019-01-13T08:52:09.600Z,967.47
2019-01-13T08:53:09.591Z,967.43
2019-01-13T08:54:09.499Z,967.40
2019-01-13T08:55:09.456Z,967.38
2019-01-13T08:56:09.408Z,967.35
2019-01-13T08:57:09.359Z,967.41
2019-01-13T08:58:09.308Z,967.41
2019-01-13T08:59:09.266Z,967.38
2019-01-13T09:00:09.213Z,967.34
2019-01-13T09:01:09.205Z,967.40
2019-01-13T09:02:09.127Z,967.36
2019-01-13T09:03:09.080Z,967.31
2019-01-13T09:04:09.049Z,967.28
2019-01-13T09:05:08.991Z,967.23
2019-01-13T09:06:08.943Z,967.27
2019-01-13T09:07:08.894Z,967.31
2019-01-13T09:08:08.902Z,967.24
2019-01-13T09:09:08.805Z,967.20
2019-01-13T09:10:08.869Z,967.27
2019-01-13T09:11:08.715Z,967.24
2019-01-13T09:12:08.700Z,967.23
2019-01-13T09:13:08.635Z,967.20
2019-01-13T09:14:08.583Z,967.19
2019-01-13T09:15:08.722Z,967.12
2019-01-13T09:16:08.879Z,967.15
2019-01-13T09:17:08.453Z,967.15
2019-01-13T09:18:08.434Z,967.13
2019-01-13T09:19:08.356Z,967.08
2019-01-13T09:20:08.325Z,967.09
2019-01-13T09:21:08.267Z,967.07
2019-01-13T09:22:08.225Z,967.12
2019-01-13T09:23:08.179Z,967.17
2019-01-13T09:24:08.133Z,967.11
2019-01-13T09:25:08.088Z,967.09
2019-01-13T09:26:08.045Z,967.12
2019-01-13T09:27:07.991Z,967.08
2019-01-13T09:28:07.956Z,967.12
2019-01-13T09:29:07.912Z,967.10
2019-01-13T09:30:07.868Z,967.08
2019-01-13T09:31:07.823Z,967.14
2019-01-13T09:32:07.783Z,967.13
2019-01-13T09:33:07.737Z,967.15
2019-01-13T09:34:07.690Z,967.08
2019-01-13T09:35:07.661Z,967.09
2019-01-13T09:36:07.602Z,967.08
2019-01-13T09:37:07.562Z,967.10
2019-01-13T09:38:07.516Z,967.13
2019-01-13T09:39:07.470Z,967.18
2019-01-13T09:40:07.429Z,967.15
2019-01-13T09:41:07.383Z,967.12
2019-01-13T09:42:07.339Z,967.10
2019-01-13T09:43:07.286Z,967.13
2019-01-13T09:44:07.252Z,967.12
2019-01-13T09:45:07.202Z,967.13
2019-01-13T09:46:07.162Z,967.01
2019-01-13T09:47:07.164Z,967.01
2019-01-13T09:48:07.074Z,967.01
2019-01-13T09:49:07.033Z,966.85
2019-01-13T09:50:06.987Z,966.86
2019-01-13T09:51:06.942Z,966.87
2019-01-13T09:52:07.063Z,966.85
2019-01-13T09:53:06.860Z,966.87
2019-01-13T09:54:06.813Z,966.80
2019-01-13T09:55:06.761Z,966.79
2019-01-13T09:56:06.725Z,966.77
2019-01-13T09:57:06.684Z,966.79
2019-01-13T09:58:06.637Z,966.77
2019-01-13T09:59:06.596Z,966.73
2019-01-13T10:00:06.551Z,966.66
2019-01-13T10:01:06.509Z,966.65
2019-01-13T10:02:06.463Z,966.61
2019-01-13T10:03:06.419Z,966.69
2019-01-13T10:04:06.373Z,966.66
2019-01-13T10:05:06.331Z,966.75
2019-01-13T10:06:06.287Z,966.77
2019-01-13T10:07:06.243Z,966.74
2019-01-13T10:08:06.200Z,966.73
2019-01-13T10:09:06.156Z,966.78
2019-01-13T10:10:06.115Z,966.73
2019-01-13T10:11:06.069Z,966.68
2019-01-13T10:12:06.030Z,966.62
2019-01-13T10:13:05.984Z,966.60
2019-01-13T10:14:05.937Z,966.56
2019-01-13T10:15:05.892Z,966.57
2019-01-13T10:16:05.853Z,966.62
2019-01-13T10:17:05.800Z,966.64
2019-01-13T10:18:05.809Z,966.64
2019-01-13T10:19:05.723Z,966.77
2019-01-13T10:20:05.685Z,966.66
2019-01-13T10:21:05.636Z,966.75
2019-01-13T10:22:05.589Z,966.72
2019-01-13T10:23:05.547Z,966.73
2019-01-13T10:24:05.499Z,966.73
2019-01-13T10:25:05.454Z,966.69
2019-01-13T10:26:05.458Z,966.65
2019-01-13T10:27:05.376Z,966.68
2019-01-13T10:28:05.335Z,966.70
2019-01-13T10:29:06.669Z,966.61
2019-01-13T10:30:05.242Z,966.70
2019-01-13T10:31:05.207Z,966.71
2019-01-13T10:32:05.211Z,966.74
2019-01-13T10:33:05.117Z,966.65
2019-01-13T10:34:05.095Z,966.60
2019-01-13T10:35:05.023Z,966.51
2019-01-13T10:36:05.001Z,966.56
2019-01-13T10:37:04.935Z,966.52
2019-01-13T10:38:04.894Z,966.55
2019-01-13T10:39:04.850Z,966.51
2019-01-13T10:40:04.807Z,966.47
2019-01-13T10:41:04.761Z,966.37
2019-01-13T10:42:04.717Z,966.39
2019-01-13T10:43:04.673Z,966.33
2019-01-13T10:44:04.711Z,966.39
2019-01-13T10:45:04.584Z,966.33
2019-01-13T10:46:04.542Z,966.37
2019-01-13T10:47:04.498Z,966.27
2019-01-13T10:48:04.506Z,966.26
2019-01-13T10:49:04.413Z,966.21
2019-01-13T10:50:04.368Z,966.21
2019-01-13T10:51:04.323Z,966.27
2019-01-13T10:52:04.300Z,966.24
2019-01-13T10:53:04.235Z,966.24
2019-01-13T10:54:09.121Z,966.24
2019-01-13T10:55:04.149Z,966.19
2019-01-13T10:56:04.104Z,966.08
2019-01-13T10:57:04.060Z,966.05
2019-01-13T10:58:04.020Z,965.96
2019-01-13T11:01:30.220Z,965.98
2019-01-13T11:02:30.146Z,965.99
2019-01-13T11:04:22.963Z,965.91
2019-01-13T11:05:22.890Z,965.96
2019-01-13T11:07:16.193Z,965.94
2019-01-13T11:08:16.143Z,965.88
2019-01-13T11:10:09.474Z,965.90
2019-01-13T11:11:09.383Z,965.90
2019-01-13T11:13:02.662Z,965.91
2019-01-13T11:14:02.602Z,965.84
2019-01-13T11:15:55.891Z,965.75
2019-01-13T11:16:55.822Z,965.70
2019-01-13T11:18:48.656Z,965.55
2019-01-13T11:19:48.576Z,965.57
2019-01-13T11:21:41.402Z,965.67
2019-01-13T11:22:41.334Z,965.68
2019-01-13T11:24:34.194Z,965.56
2019-01-13T11:25:34.098Z,965.44
2019-01-13T11:27:26.884Z,965.48
2019-01-13T11:28:26.843Z,965.37
2019-01-13T11:30:20.180Z,965.41
2019-01-13T11:31:20.110Z,965.43
2019-01-13T11:33:13.419Z,965.44
2019-01-13T11:34:13.376Z,965.41
2019-01-13T11:36:06.699Z,965.37
2019-01-13T11:37:06.613Z,965.34
2019-01-13T11:38:59.946Z,965.33
2019-01-13T11:39:59.874Z,965.35
2019-01-13T11:41:53.204Z,965.29
2019-01-13T11:42:53.139Z,965.23
2019-01-13T11:44:45.971Z,965.27
2019-01-13T11:45:45.889Z,965.27
2019-01-13T11:47:39.313Z,965.27
2019-01-13T11:48:39.010Z,965.33
2019-01-13T11:50:31.892Z,965.29
2019-01-13T11:51:31.767Z,965.33
2019-01-13T11:53:24.567Z,965.21
2019-01-13T11:54:24.578Z,965.24
2019-01-13T11:56:17.846Z,965.25
2019-01-13T11:57:17.818Z,965.16
2019-01-13T11:59:11.042Z,965.17
2019-01-13T12:00:11.026Z,965.19
2019-01-13T12:01:10.964Z,965.20
2019-01-13T12:02:10.901Z,965.23
2019-01-13T12:03:16.778Z,965.25
2019-01-13T12:04:10.817Z,965.09
2019-01-13T12:05:11.376Z,965.12
2019-01-13T12:06:11.130Z,965.06
2019-01-13T12:07:11.507Z,965.05
2019-01-13T12:08:11.162Z,965.08
2019-01-13T12:09:10.660Z,965.08
2019-01-13T12:10:10.788Z,964.99
2019-01-13T12:11:10.638Z,964.94
2019-01-13T12:12:10.470Z,964.93
2019-01-13T12:13:10.427Z,964.95
2019-01-13T12:14:10.385Z,964.85
2019-01-13T12:15:10.371Z,964.85
2019-01-13T12:16:11.620Z,964.84
2019-01-13T12:17:10.255Z,964.83
2019-01-13T12:18:10.262Z,964.82
2019-01-13T12:19:10.160Z,964.89
2019-01-13T12:20:10.122Z,964.85
2019-01-13T12:21:10.078Z,964.85
2019-01-13T12:22:10.033Z,964.82
2019-01-13T12:23:09.991Z,964.85
2019-01-13T12:24:09.978Z,964.88
2019-01-13T12:25:10.666Z,964.87
2019-01-13T12:26:09.893Z,964.82
2019-01-13T12:27:09.816Z,964.91
2019-01-13T12:28:09.771Z,964.84
2019-01-13T12:29:10.666Z,964.83
2019-01-13T12:30:10.088Z,964.76
2019-01-13T12:31:09.642Z,964.71
2019-01-13T12:32:09.594Z,964.71
2019-01-13T12:33:09.569Z,964.75
2019-01-13T12:34:09.513Z,964.76
2019-01-13T12:35:09.510Z,964.69
2019-01-13T12:36:09.428Z,964.75
2019-01-13T12:37:09.387Z,964.79
2019-01-13T12:38:09.335Z,964.72
2019-01-13T12:39:09.302Z,964.78
2019-01-13T12:40:09.253Z,964.68
2019-01-13T12:41:09.216Z,964.73
2019-01-13T12:42:09.163Z,964.77
2019-01-13T12:43:09.124Z,964.68
2019-01-13T12:44:09.217Z,964.61
2019-01-13T12:45:09.038Z,964.43
2019-01-13T12:46:08.988Z,964.50
2019-01-13T12:47:09.046Z,964.43
2019-01-13T12:48:08.911Z,964.43
2019-01-13T12:49:08.865Z,964.39
2019-01-13T12:50:08.813Z,964.39
2019-01-13T12:51:08.773Z,964.38
2019-01-13T12:52:08.758Z,964.35
2019-01-13T12:53:08.701Z,964.29
2019-01-13T12:54:08.638Z,964.31
2019-01-13T12:55:08.603Z,964.27
2019-01-13T12:56:08.561Z,964.38
2019-01-13T12:57:08.632Z,964.24
2019-01-13T12:58:08.521Z,964.26
2019-01-13T12:59:08.424Z,964.23
2019-01-13T13:00:08.444Z,964.18
2019-01-13T13:01:08.337Z,964.22
2019-01-13T13:02:08.335Z,964.24
2019-01-13T13:03:08.283Z,964.22
2019-01-13T13:04:09.232Z,964.26
2019-01-13T13:05:08.712Z,964.21
2019-01-13T13:06:08.134Z,964.15
2019-01-13T13:07:08.189Z,964.14
2019-01-13T13:08:08.041Z,964.04
2019-01-13T13:09:07.990Z,964.06
2019-01-13T13:10:07.945Z,964.06
2019-01-13T13:11:07.902Z,964.07
2019-01-13T13:12:07.902Z,964.04
2019-01-13T13:13:07.810Z,963.96
2019-01-13T13:14:07.770Z,964.01
2019-01-13T13:15:07.728Z,964.00
2019-01-13T13:16:07.719Z,963.95
2019-01-13T13:17:07.643Z,963.97
2019-01-13T13:18:07.606Z,963.97
2019-01-13T13:19:07.553Z,963.91
2019-01-13T13:20:07.506Z,963.86
2019-01-13T13:21:07.466Z,963.83
2019-01-13T13:22:07.547Z,963.86
2019-01-13T13:23:07.391Z,963.81
2019-01-13T13:24:07.352Z,963.79
2019-01-13T13:25:07.292Z,963.81
2019-01-13T13:26:07.251Z,963.80
2019-01-13T13:27:07.203Z,963.81
2019-01-13T13:28:07.158Z,963.86
2019-01-13T13:29:07.115Z,963.74
2019-01-13T13:30:07.084Z,963.80
2019-01-13T13:31:07.034Z,963.76
2019-01-13T13:32:07.007Z,963.73
2019-01-13T13:33:06.949Z,963.68
2019-01-13T13:34:06.893Z,963.73
2019-01-13T13:35:06.851Z,963.62
2019-01-13T13:36:06.861Z,963.67
2019-01-13T13:37:06.766Z,963.70
2019-01-13T13:38:06.726Z,963.68
2019-01-13T13:39:06.679Z,963.75
2019-01-13T13:40:06.680Z,963.70
2019-01-13T13:41:06.598Z,963.71
2019-01-13T13:42:06.553Z,963.64
2019-01-13T13:43:06.526Z,963.74
2019-01-13T13:44:06.464Z,963.76
2019-01-13T13:45:06.425Z,963.71
2019-01-13T13:46:06.395Z,963.77
2019-01-13T13:47:06.336Z,963.80
2019-01-13T13:48:06.314Z,963.82
2019-01-13T13:49:06.249Z,963.76
2019-01-13T13:50:06.221Z,963.80
2019-01-13T13:51:06.161Z,963.90
2019-01-13T13:52:06.179Z,963.84
2019-01-13T13:53:06.079Z,963.89
2019-01-13T13:54:06.026Z,963.80
2019-01-13T13:55:05.981Z,963.81
2019-01-13T13:56:05.937Z,963.74
2019-01-13T13:57:05.902Z,963.79
2019-01-13T13:58:05.851Z,963.75
2019-01-13T13:59:05.804Z,963.77
2019-01-13T14:00:05.767Z,963.72
2019-01-13T14:01:05.724Z,963.73
2019-01-13T14:02:05.678Z,963.76
2019-01-13T14:03:05.632Z,963.74
2019-01-13T14:04:05.591Z,963.73
2019-01-13T14:05:05.552Z,963.75
2019-01-13T14:06:05.504Z,963.72
2019-01-13T14:07:05.459Z,963.67
2019-01-13T14:08:05.416Z,963.65
2019-01-13T14:09:05.376Z,963.64
2019-01-13T14:10:05.331Z,963.53
2019-01-13T14:11:05.287Z,963.59
2019-01-13T14:12:05.244Z,963.57
2019-01-13T14:13:05.197Z,963.64
2019-01-13T14:14:05.157Z,963.62
2019-01-13T14:15:05.114Z,963.55
2019-01-13T14:16:05.065Z,963.60
2019-01-13T14:17:05.027Z,963.52
2019-01-13T14:18:04.977Z,963.47
2019-01-13T14:19:04.980Z,963.46
2019-01-13T14:20:04.892Z,963.50
2019-01-13T14:21:04.853Z,963.36
2019-01-13T14:22:05.036Z,963.57
2019-01-13T14:23:04.764Z,963.57
2019-01-13T14:24:04.717Z,963.51
2019-01-13T14:25:04.676Z,963.51
2019-01-13T14:26:04.628Z,963.37
2019-01-13T14:27:04.591Z,963.40
2019-01-13T14:28:04.547Z,963.36
2019-01-13T14:29:04.501Z,963.36
2019-01-13T14:30:04.456Z,963.30
2019-01-13T14:31:04.415Z,963.40
2019-01-13T14:32:04.372Z,963.34
2019-01-13T14:33:04.327Z,963.35
2019-01-13T14:34:04.301Z,963.35
2019-01-13T14:35:04.245Z,963.32
2019-01-13T14:36:04.201Z,963.35
2019-01-13T14:37:04.156Z,963.38
2019-01-13T14:38:04.106Z,963.37
2019-01-13T14:39:04.069Z,963.38
2019-01-13T14:40:04.053Z,963.32
2019-01-13T14:41:03.981Z,963.33
2019-01-13T14:42:03.954Z,963.30
2019-01-13T14:43:03.891Z,963.26
2019-01-13T14:44:03.851Z,963.31
2019-01-13T14:45:03.810Z,963.22
2019-01-13T14:46:03.762Z,963.26
2019-01-13T14:47:03.720Z,963.21
2019-01-13T14:48:03.678Z,963.23
2019-01-13T14:49:03.689Z,963.27
2019-01-13T14:50:03.621Z,963.18
2019-01-13T14:51:03.618Z,963.21
2019-01-13T14:52:03.546Z,963.15
2019-01-13T14:53:03.467Z,963.15
2019-01-13T14:54:03.439Z,963.09
2019-01-13T14:55:03.430Z,963.16
2019-01-13T14:56:03.416Z,963.04
2019-01-13T14:57:03.279Z,963.17
2019-01-13T14:58:03.246Z,963.21
2019-01-13T14:59:03.312Z,963.23
2019-01-13T15:00:03.151Z,963.28
2019-01-13T15:01:03.112Z,963.20
2019-01-13T15:02:03.062Z,963.21
2019-01-13T15:03:03.045Z,963.24
2019-01-13T15:04:02.974Z,963.21
2019-01-13T15:05:02.932Z,963.19
2019-01-13T15:06:02.891Z,963.21
2019-01-13T15:07:02.882Z,963.23
2019-01-13T15:08:02.806Z,963.21
2019-01-13T15:09:02.801Z,963.26
2019-01-13T15:10:02.714Z,963.24
2019-01-13T15:11:02.672Z,963.13
2019-01-13T15:12:02.634Z,963.11
2019-01-13T15:13:02.595Z,963.07
2019-01-13T15:14:02.543Z,963.00
2019-01-13T15:15:02.576Z,963.01
2019-01-13T15:16:02.456Z,963.02
2019-01-13T15:17:02.422Z,963.02
2019-01-13T15:18:02.369Z,962.97
2019-01-13T15:19:02.325Z,962.99
2019-01-13T15:20:02.285Z,962.92
2019-01-13T15:21:02.236Z,963.01
2019-01-13T15:22:02.196Z,962.96
2019-01-13T15:23:02.152Z,962.98
2019-01-13T15:24:02.109Z,962.99
2019-01-13T15:25:02.068Z,963.06
2019-01-13T15:26:02.022Z,963.02
2019-01-13T15:27:01.982Z,962.89
2019-01-13T15:28:01.936Z,962.93
2019-01-13T15:29:01.891Z,962.94
2019-01-13T15:30:01.849Z,962.97
2019-01-13T15:31:01.805Z,963.01
2019-01-13T15:32:01.764Z,962.97
2019-01-13T15:33:01.750Z,963.00
2019-01-13T15:34:07.220Z,963.06
2019-01-13T15:35:01.647Z,963.02
2019-01-13T15:36:01.588Z,962.97
2019-01-13T15:37:01.582Z,963.00
2019-01-13T15:38:01.499Z,963.04
2019-01-13T15:39:01.457Z,963.05
2019-01-13T15:40:01.415Z,963.07
2019-01-13T15:41:01.373Z,963.07
2019-01-13T15:42:01.362Z,963.03
2019-01-13T15:43:01.338Z,963.07
2019-01-13T15:44:01.246Z,963.09
2019-01-13T15:45:01.196Z,963.11
2019-01-13T15:46:01.152Z,963.08
2019-01-13T15:47:01.108Z,963.04
2019-01-13T15:48:01.112Z,963.00
2019-01-13T15:49:01.021Z,963.00
2019-01-13T15:50:00.986Z,963.00
2019-01-13T15:51:00.935Z,963.01
2019-01-13T15:52:00.898Z,963.03
2019-01-13T15:53:00.850Z,963.11
2019-01-13T15:54:00.852Z,963.07
2019-01-13T15:55:00.760Z,963.11
2019-01-13T15:56:00.719Z,963.08
2019-01-13T15:57:00.673Z,963.09
2019-01-13T15:58:00.631Z,963.09
2019-01-13T15:59:00.585Z,963.07
2019-01-13T16:00:00.544Z,963.09
2019-01-13T16:01:00.499Z,963.04
2019-01-13T16:02:00.455Z,963.09
2019-01-13T16:03:00.417Z,962.99
2019-01-13T16:04:01.268Z,963.00
2019-01-13T16:05:00.344Z,962.98
2019-01-13T16:06:00.282Z,962.92
2019-01-13T16:07:00.236Z,962.99
2019-01-13T16:08:00.196Z,962.94
2019-01-13T16:09:00.151Z,963.02
2019-01-13T16:10:00.175Z,963.08
2019-01-13T16:11:00.062Z,963.11
2019-01-13T16:12:00.022Z,963.09
2019-01-13T16:12:59.979Z,963.13
2019-01-13T16:13:59.934Z,963.10
2019-01-13T16:14:59.917Z,963.09
2019-01-13T16:15:59.843Z,963.10
2019-01-13T16:16:59.837Z,963.15
2019-01-13T16:17:59.788Z,963.15
2019-01-13T16:18:59.728Z,963.15
2019-01-13T16:19:59.675Z,963.08
2019-01-13T16:20:59.631Z,963.19
2019-01-13T16:21:59.616Z,963.14
2019-01-13T16:22:59.542Z,963.14
2019-01-13T16:23:59.493Z,963.15
2019-01-13T16:24:59.450Z,963.16
2019-01-13T16:25:59.412Z,963.08
2019-01-13T16:26:59.370Z,963.06
2019-01-13T16:27:59.326Z,963.12
2019-01-13T16:28:59.291Z,963.10
2019-01-13T16:29:59.238Z,963.09
2019-01-13T16:30:59.194Z,963.17
2019-01-13T16:31:59.153Z,963.08
2019-01-13T16:32:59.112Z,963.03
2019-01-13T16:33:59.065Z,962.92
2019-01-13T16:34:59.057Z,962.95
2019-01-13T16:35:58.998Z,962.91
2019-01-13T16:36:58.928Z,962.80
2019-01-13T16:37:58.893Z,962.89
2019-01-13T16:38:58.876Z,962.93
2019-01-13T16:39:58.801Z,962.93
2019-01-13T16:40:58.759Z,962.99
2019-01-13T16:41:58.712Z,963.05
2019-01-13T16:42:58.675Z,963.03
2019-01-13T16:43:58.684Z,963.05
2019-01-13T16:44:58.581Z,963.05
2019-01-13T16:45:58.540Z,963.15
2019-01-13T16:46:58.498Z,962.96
2019-01-13T16:47:58.465Z,963.07
2019-01-13T16:48:58.417Z,963.14
2019-01-13T16:49:58.375Z,963.24
2019-01-13T16:50:58.330Z,963.08
2019-01-13T16:51:58.287Z,963.18
2019-01-13T16:52:58.241Z,963.05
2019-01-13T16:53:58.220Z,963.12
2019-01-13T16:54:58.156Z,963.08
2019-01-13T16:55:58.109Z,963.00
2019-01-13T16:56:58.255Z,963.00
2019-01-13T16:57:58.023Z,963.11
2019-01-13T16:58:57.980Z,963.13
2019-01-13T16:59:57.981Z,962.97
2019-01-13T17:00:57.894Z,963.00
2019-01-13T17:01:58.075Z,963.00
2019-01-13T17:02:57.807Z,962.90
2019-01-13T17:03:57.787Z,963.03
2019-01-13T17:04:57.721Z,962.95
2019-01-13T17:05:57.715Z,963.05
2019-01-13T17:06:57.648Z,963.03
2019-01-13T17:07:57.590Z,962.91
2019-01-13T17:08:57.549Z,962.97
2019-01-13T17:09:57.504Z,962.97
2019-01-13T17:10:57.460Z,962.84
2019-01-13T17:11:57.416Z,962.79
2019-01-13T17:12:57.374Z,962.98
2019-01-13T17:13:57.332Z,963.06
2019-01-13T17:14:57.286Z,963.08
2019-01-13T17:15:57.245Z,962.96
2019-01-13T17:16:57.199Z,963.01
2019-01-13T17:17:57.156Z,963.00
2019-01-13T17:18:57.113Z,962.96
2019-01-13T17:19:57.070Z,962.97
2019-01-13T17:20:57.027Z,963.01
2019-01-13T17:21:57.007Z,962.96
2019-01-13T17:22:56.938Z,962.93
2019-01-13T17:23:56.894Z,962.92
2019-01-13T17:24:56.861Z,962.92
2019-01-13T17:25:56.809Z,962.94
2019-01-13T17:26:56.770Z,962.96
2019-01-13T17:27:56.722Z,963.00
2019-01-13T17:28:56.684Z,962.84
2019-01-13T17:29:57.726Z,962.87
2019-01-13T17:30:56.616Z,962.85
2019-01-13T17:31:56.547Z,962.76
2019-01-13T17:32:56.507Z,962.73
2019-01-13T17:33:56.460Z,962.81
2019-01-13T17:34:56.487Z,962.78
2019-01-13T17:35:56.471Z,962.77
2019-01-13T17:36:56.331Z,962.74
2019-01-13T17:37:56.287Z,962.94
2019-01-13T17:38:56.242Z,962.74
2019-01-13T17:39:56.201Z,962.70
2019-01-13T17:40:56.159Z,962.77
2019-01-13T17:41:56.112Z,962.74
2019-01-13T17:42:56.070Z,962.70
2019-01-13T17:43:56.024Z,962.76
2019-01-13T17:44:55.989Z,962.73
2019-01-13T17:45:55.938Z,962.73
2019-01-13T17:46:55.895Z,962.73
2019-01-13T17:47:55.850Z,962.76
2019-01-13T17:48:55.809Z,962.69
2019-01-13T17:49:55.776Z,962.70
2019-01-13T17:50:55.724Z,962.70
2019-01-13T17:51:55.678Z,962.77
2019-01-13T17:52:56.230Z,962.63
2019-01-13T17:53:55.595Z,962.70
2019-01-13T17:54:55.551Z,962.75
2019-01-13T17:55:56.821Z,962.67
2019-01-13T17:56:55.531Z,962.63
2019-01-13T17:57:55.420Z,962.61
2019-01-13T17:58:55.381Z,962.54
2019-01-13T17:59:55.771Z,962.49
2019-01-13T18:00:55.381Z,962.53
2019-01-13T18:01:55.244Z,962.62
2019-01-13T18:02:55.205Z,962.53
2019-01-13T18:03:55.161Z,962.52
2019-01-13T18:04:55.118Z,962.50